sensor_id;sensor_type;location;lat;lon;timestamp;P1;durP1;ratioP1;P2;durP2;ratioP2
71503;SDS011;59323;50.874;7.028;2023-08-17T00:00:16;9.77;;;5.50;;
71503;SDS011;59323;50.874;7.028;2023-08-17T00:02:43;10.68;;;6.13;;
71503;SDS011;59323;50.874;7.028;2023-08-17T00:05:08;11.50;;;5.80;;
71503;SDS011;59323;50.874;7.028;2023-08-17T00:07:34;11.27;;;6.05;;
71503;SDS011;59323;50.874;7.028;2023-08-17T00:10:00;11.53;;;6.20;;
71503;SDS011;59323;50.874;7.028;2023-08-17T00:12:26;10.98;;;6.40;;
71503;SDS011;59323;50.874;7.028;2023-08-17T00:14:51;11.90;;;6.50;;
71503;SDS011;59323;50.874;7.028;2023-08-17T00:17:17;9.88;;;5.78;;
71503;SDS011;59323;50.874;7.028;2023-08-17T00:19:43;11.23;;;6.80;;
71503;SDS011;59323;50.874;7.028;2023-08-17T00:22:08;11.47;;;6.13;;
71503;SDS011;59323;50.874;7.028;2023-08-17T00:24:34;11.40;;;7.37;;
71503;SDS011;59323;50.874;7.028;2023-08-17T00:26:59;11.90;;;6.20;;
71503;SDS011;59323;50.874;7.028;2023-08-17T00:29:24;11.80;;;5.67;;
71503;SDS011;59323;50.874;7.028;2023-08-17T00:31:50;12.17;;;5.80;;
71503;SDS011;59323;50.874;7.028;2023-08-17T00:34:16;8.63;;;5.32;;
71503;SDS011;59323;50.874;7.028;2023-08-17T00:36:41;11.20;;;5.83;;
71503;SDS011;59323;50.874;7.028;2023-08-17T00:39:06;11.63;;;6.30;;
71503;SDS011;59323;50.874;7.028;2023-08-17T00:41:32;11.57;;;6.50;;
71503;SDS011;59323;50.874;7.028;2023-08-17T00:43:57;9.27;;;5.47;;
71503;SDS011;59323;50.874;7.028;2023-08-17T00:46:22;10.25;;;6.22;;
71503;SDS011;59323;50.874;7.028;2023-08-17T00:48:48;10.73;;;6.20;;
71503;SDS011;59323;50.874;7.028;2023-08-17T00:51:14;10.27;;;6.00;;
71503;SDS011;59323;50.874;7.028;2023-08-17T00:53:40;11.80;;;5.75;;
71503;SDS011;59323;50.874;7.028;2023-08-17T00:56:06;12.87;;;6.10;;
71503;SDS011;59323;50.874;7.028;2023-08-17T00:58:32;10.35;;;5.50;;
71503;SDS011;59323;50.874;7.028;2023-08-17T01:00:58;11.23;;;6.07;;
71503;SDS011;59323;50.874;7.028;2023-08-17T01:03:23;9.32;;;5.32;;
71503;SDS011;59323;50.874;7.028;2023-08-17T01:05:51;10.75;;;5.25;;
71503;SDS011;59323;50.874;7.028;2023-08-17T01:08:16;11.40;;;6.07;;
71503;SDS011;59323;50.874;7.028;2023-08-17T01:13:31;11.63;;;5.07;;
71503;SDS011;59323;50.874;7.028;2023-08-17T01:16:05;11.65;;;5.43;;
71503;SDS011;59323;50.874;7.028;2023-08-17T01:18:35;10.32;;;5.85;;
71503;SDS011;59323;50.874;7.028;2023-08-17T01:21:05;10.30;;;5.23;;
71503;SDS011;59323;50.874;7.028;2023-08-17T01:23:33;10.23;;;5.45;;
71503;SDS011;59323;50.874;7.028;2023-08-17T01:25:59;13.57;;;5.95;;
71503;SDS011;59323;50.874;7.028;2023-08-17T01:28:24;10.90;;;6.30;;
71503;SDS011;59323;50.874;7.028;2023-08-17T01:30:55;10.68;;;5.38;;
71503;SDS011;59323;50.874;7.028;2023-08-17T01:36:25;12.43;;;4.88;;
71503;SDS011;59323;50.874;7.028;2023-08-17T01:38:55;10.45;;;5.45;;
71503;SDS011;59323;50.874;7.028;2023-08-17T01:41:22;12.50;;;5.90;;
71503;SDS011;59323;50.874;7.028;2023-08-17T01:43:48;11.30;;;4.95;;
71503;SDS011;59323;50.874;7.028;2023-08-17T01:46:15;10.67;;;4.90;;
71503;SDS011;59323;50.874;7.028;2023-08-17T01:48:42;10.45;;;5.35;;
71503;SDS011;59323;50.874;7.028;2023-08-17T01:51:11;9.68;;;5.25;;
71503;SDS011;59323;50.874;7.028;2023-08-17T01:53:40;11.85;;;5.15;;
71503;SDS011;59323;50.874;7.028;2023-08-17T01:56:06;10.17;;;5.23;;
71503;SDS011;59323;50.874;7.028;2023-08-17T01:58:31;11.17;;;6.03;;
71503;SDS011;59323;50.874;7.028;2023-08-17T02:00:56;9.47;;;5.33;;
71503;SDS011;59323;50.874;7.028;2023-08-17T02:03:22;9.90;;;6.10;;
71503;SDS011;59323;50.874;7.028;2023-08-17T02:05:47;11.30;;;5.10;;
71503;SDS011;59323;50.874;7.028;2023-08-17T02:08:13;9.90;;;5.77;;
71503;SDS011;59323;50.874;7.028;2023-08-17T02:10:38;10.10;;;5.10;;
71503;SDS011;59323;50.874;7.028;2023-08-17T02:13:03;10.97;;;5.60;;
71503;SDS011;59323;50.874;7.028;2023-08-17T02:15:29;12.90;;;5.87;;
71503;SDS011;59323;50.874;7.028;2023-08-17T02:17:54;13.70;;;6.10;;
71503;SDS011;59323;50.874;7.028;2023-08-17T02:20:22;9.85;;;5.65;;
71503;SDS011;59323;50.874;7.028;2023-08-17T02:22:47;10.80;;;5.80;;
71503;SDS011;59323;50.874;7.028;2023-08-17T02:25:12;11.73;;;6.37;;
71503;SDS011;59323;50.874;7.028;2023-08-17T02:27:38;12.20;;;6.50;;
71503;SDS011;59323;50.874;7.028;2023-08-17T02:30:03;9.20;;;5.43;;
71503;SDS011;59323;50.874;7.028;2023-08-17T02:32:29;8.93;;;5.17;;
71503;SDS011;59323;50.874;7.028;2023-08-17T02:34:54;11.53;;;6.57;;
71503;SDS011;59323;50.874;7.028;2023-08-17T02:37:20;9.15;;;5.15;;
71503;SDS011;59323;50.874;7.028;2023-08-17T02:39:45;10.67;;;6.10;;
71503;SDS011;59323;50.874;7.028;2023-08-17T02:42:11;10.03;;;5.67;;
71503;SDS011;59323;50.874;7.028;2023-08-17T02:44:36;10.77;;;6.03;;
71503;SDS011;59323;50.874;7.028;2023-08-17T02:47:01;10.57;;;6.57;;
71503;SDS011;59323;50.874;7.028;2023-08-17T02:49:27;10.77;;;6.23;;
71503;SDS011;59323;50.874;7.028;2023-08-17T02:51:52;9.33;;;5.70;;
71503;SDS011;59323;50.874;7.028;2023-08-17T02:54:17;12.77;;;5.67;;
71503;SDS011;59323;50.874;7.028;2023-08-17T02:56:43;8.90;;;5.20;;
71503;SDS011;59323;50.874;7.028;2023-08-17T02:59:08;11.05;;;5.72;;
71503;SDS011;59323;50.874;7.028;2023-08-17T03:01:33;12.77;;;6.07;;
71503;SDS011;59323;50.874;7.028;2023-08-17T03:03:59;10.00;;;5.17;;
71503;SDS011;59323;50.874;7.028;2023-08-17T03:06:24;10.53;;;5.37;;
71503;SDS011;59323;50.874;7.028;2023-08-17T03:08:49;8.77;;;5.00;;
71503;SDS011;59323;50.874;7.028;2023-08-17T03:11:17;10.48;;;5.70;;
71503;SDS011;59323;50.874;7.028;2023-08-17T03:13:42;9.03;;;5.17;;
71503;SDS011;59323;50.874;7.028;2023-08-17T03:16:08;10.10;;;4.97;;
71503;SDS011;59323;50.874;7.028;2023-08-17T03:18:33;11.70;;;4.88;;
71503;SDS011;59323;50.874;7.028;2023-08-17T03:20:59;9.30;;;4.93;;
71503;SDS011;59323;50.874;7.028;2023-08-17T03:23:24;8.60;;;5.13;;
71503;SDS011;59323;50.874;7.028;2023-08-17T03:25:53;8.83;;;4.67;;
71503;SDS011;59323;50.874;7.028;2023-08-17T03:28:19;14.07;;;5.40;;
71503;SDS011;59323;50.874;7.028;2023-08-17T03:30:44;8.40;;;5.10;;
71503;SDS011;59323;50.874;7.028;2023-08-17T03:33:10;9.85;;;5.03;;
71503;SDS011;59323;50.874;7.028;2023-08-17T03:35:35;8.13;;;4.43;;
71503;SDS011;59323;50.874;7.028;2023-08-17T03:38:00;9.07;;;4.70;;
71503;SDS011;59323;50.874;7.028;2023-08-17T03:40:26;9.40;;;5.13;;
71503;SDS011;59323;50.874;7.028;2023-08-17T03:42:51;9.47;;;5.10;;
71503;SDS011;59323;50.874;7.028;2023-08-17T03:45:17;11.97;;;5.33;;
71503;SDS011;59323;50.874;7.028;2023-08-17T03:47:43;9.65;;;5.60;;
71503;SDS011;59323;50.874;7.028;2023-08-17T03:50:08;9.38;;;5.18;;
71503;SDS011;59323;50.874;7.028;2023-08-17T03:52:34;11.57;;;5.13;;
71503;SDS011;59323;50.874;7.028;2023-08-17T03:54:59;8.17;;;5.00;;
71503;SDS011;59323;50.874;7.028;2023-08-17T03:57:25;8.50;;;5.23;;
71503;SDS011;59323;50.874;7.028;2023-08-17T03:59:50;8.53;;;4.77;;
71503;SDS011;59323;50.874;7.028;2023-08-17T04:02:15;8.20;;;4.47;;
71503;SDS011;59323;50.874;7.028;2023-08-17T04:04:41;11.00;;;5.13;;
71503;SDS011;59323;50.874;7.028;2023-08-17T04:07:06;9.43;;;4.10;;
71503;SDS011;59323;50.874;7.028;2023-08-17T04:09:32;8.77;;;5.30;;
71503;SDS011;59323;50.874;7.028;2023-08-17T04:11:58;10.73;;;5.53;;
71503;SDS011;59323;50.874;7.028;2023-08-17T04:14:24;8.63;;;4.82;;
71503;SDS011;59323;50.874;7.028;2023-08-17T04:16:49;9.03;;;5.30;;
71503;SDS011;59323;50.874;7.028;2023-08-17T04:19:15;9.93;;;5.23;;
71503;SDS011;59323;50.874;7.028;2023-08-17T04:21:40;7.27;;;4.47;;
71503;SDS011;59323;50.874;7.028;2023-08-17T04:24:05;9.40;;;5.50;;
71503;SDS011;59323;50.874;7.028;2023-08-17T04:26:31;10.05;;;4.60;;
71503;SDS011;59323;50.874;7.028;2023-08-17T04:28:56;12.27;;;5.20;;
71503;SDS011;59323;50.874;7.028;2023-08-17T04:31:22;10.80;;;5.67;;
71503;SDS011;59323;50.874;7.028;2023-08-17T04:33:47;9.68;;;5.80;;
71503;SDS011;59323;50.874;7.028;2023-08-17T04:36:12;9.70;;;4.57;;
71503;SDS011;59323;50.874;7.028;2023-08-17T04:38:38;10.57;;;5.43;;
71503;SDS011;59323;50.874;7.028;2023-08-17T04:41:03;9.03;;;5.30;;
71503;SDS011;59323;50.874;7.028;2023-08-17T04:43:29;11.10;;;5.03;;
71503;SDS011;59323;50.874;7.028;2023-08-17T04:45:54;7.90;;;5.22;;
71503;SDS011;59323;50.874;7.028;2023-08-17T04:48:19;9.93;;;5.23;;
71503;SDS011;59323;50.874;7.028;2023-08-17T04:50:45;10.30;;;6.60;;
71503;SDS011;59323;50.874;7.028;2023-08-17T04:53:10;8.98;;;5.63;;
71503;SDS011;59323;50.874;7.028;2023-08-17T04:55:36;10.43;;;6.30;;
71503;SDS011;59323;50.874;7.028;2023-08-17T04:58:01;8.93;;;5.27;;
71503;SDS011;59323;50.874;7.028;2023-08-17T05:00:27;10.00;;;5.50;;
71503;SDS011;59323;50.874;7.028;2023-08-17T05:02:55;8.25;;;5.07;;
71503;SDS011;59323;50.874;7.028;2023-08-17T05:05:21;9.25;;;5.00;;
71503;SDS011;59323;50.874;7.028;2023-08-17T05:07:48;8.53;;;5.57;;
71503;SDS011;59323;50.874;7.028;2023-08-17T05:10:13;8.48;;;5.32;;
71503;SDS011;59323;50.874;7.028;2023-08-17T05:12:39;11.50;;;5.97;;
71503;SDS011;59323;50.874;7.028;2023-08-17T05:15:04;8.90;;;5.43;;
71503;SDS011;59323;50.874;7.028;2023-08-17T05:17:30;9.63;;;5.28;;
71503;SDS011;59323;50.874;7.028;2023-08-17T05:19:55;9.77;;;5.33;;
71503;SDS011;59323;50.874;7.028;2023-08-17T05:22:21;8.43;;;5.80;;
71503;SDS011;59323;50.874;7.028;2023-08-17T05:24:46;8.93;;;4.88;;
71503;SDS011;59323;50.874;7.028;2023-08-17T05:27:12;9.33;;;5.07;;
71503;SDS011;59323;50.874;7.028;2023-08-17T05:29:37;10.67;;;5.10;;
71503;SDS011;59323;50.874;7.028;2023-08-17T05:32:02;8.90;;;5.40;;
71503;SDS011;59323;50.874;7.028;2023-08-17T05:34:28;8.82;;;5.38;;
71503;SDS011;59323;50.874;7.028;2023-08-17T05:36:53;8.67;;;4.70;;
71503;SDS011;59323;50.874;7.028;2023-08-17T05:39:19;8.97;;;4.87;;
71503;SDS011;59323;50.874;7.028;2023-08-17T05:41:45;8.30;;;4.82;;
71503;SDS011;59323;50.874;7.028;2023-08-17T05:44:10;9.93;;;5.70;;
71503;SDS011;59323;50.874;7.028;2023-08-17T05:46:35;9.77;;;5.40;;
71503;SDS011;59323;50.874;7.028;2023-08-17T05:49:01;12.20;;;5.43;;
71503;SDS011;59323;50.874;7.028;2023-08-17T05:51:27;13.83;;;5.77;;
71503;SDS011;59323;50.874;7.028;2023-08-17T05:53:52;12.70;;;5.43;;
71503;SDS011;59323;50.874;7.028;2023-08-17T05:56:18;8.03;;;4.90;;
71503;SDS011;59323;50.874;7.028;2023-08-17T05:58:43;10.77;;;5.80;;
71503;SDS011;59323;50.874;7.028;2023-08-17T06:01:09;11.57;;;5.83;;
71503;SDS011;59323;50.874;7.028;2023-08-17T06:03:36;9.32;;;5.55;;
71503;SDS011;59323;50.874;7.028;2023-08-17T06:06:02;9.65;;;5.68;;
71503;SDS011;59323;50.874;7.028;2023-08-17T06:08:28;10.25;;;5.40;;
71503;SDS011;59323;50.874;7.028;2023-08-17T06:10:54;9.37;;;5.83;;
71503;SDS011;59323;50.874;7.028;2023-08-17T06:13:20;10.55;;;6.40;;
71503;SDS011;59323;50.874;7.028;2023-08-17T06:15:48;9.18;;;5.55;;
71503;SDS011;59323;50.874;7.028;2023-08-17T06:18:14;12.30;;;6.90;;
71503;SDS011;59323;50.874;7.028;2023-08-17T06:20:39;9.40;;;5.73;;
71503;SDS011;59323;50.874;7.028;2023-08-17T06:23:05;12.88;;;7.18;;
71503;SDS011;59323;50.874;7.028;2023-08-17T06:25:30;11.57;;;7.00;;
71503;SDS011;59323;50.874;7.028;2023-08-17T06:27:56;13.80;;;6.60;;
71503;SDS011;59323;50.874;7.028;2023-08-17T06:30:21;12.30;;;6.15;;
71503;SDS011;59323;50.874;7.028;2023-08-17T06:32:47;10.57;;;6.67;;
71503;SDS011;59323;50.874;7.028;2023-08-17T06:35:13;10.48;;;6.07;;
71503;SDS011;59323;50.874;7.028;2023-08-17T06:37:38;14.27;;;7.37;;
71503;SDS011;59323;50.874;7.028;2023-08-17T06:40:06;14.00;;;7.03;;
71503;SDS011;59323;50.874;7.028;2023-08-17T06:42:36;13.13;;;7.15;;
71503;SDS011;59323;50.874;7.028;2023-08-17T06:45:02;11.70;;;6.87;;
71503;SDS011;59323;50.874;7.028;2023-08-17T06:47:28;13.40;;;7.00;;
71503;SDS011;59323;50.874;7.028;2023-08-17T06:49:54;12.37;;;6.77;;
71503;SDS011;59323;50.874;7.028;2023-08-17T06:52:20;12.63;;;7.00;;
71503;SDS011;59323;50.874;7.028;2023-08-17T06:54:45;15.07;;;8.03;;
71503;SDS011;59323;50.874;7.028;2023-08-17T06:57:10;13.98;;;7.85;;
71503;SDS011;59323;50.874;7.028;2023-08-17T06:59:36;15.73;;;7.43;;
71503;SDS011;59323;50.874;7.028;2023-08-17T07:02:01;13.40;;;7.73;;
71503;SDS011;59323;50.874;7.028;2023-08-17T07:04:27;11.10;;;6.70;;
71503;SDS011;59323;50.874;7.028;2023-08-17T07:06:52;13.48;;;7.05;;
71503;SDS011;59323;50.874;7.028;2023-08-17T07:09:17;13.10;;;7.97;;
71503;SDS011;59323;50.874;7.028;2023-08-17T07:11:43;14.38;;;7.25;;
71503;SDS011;59323;50.874;7.028;2023-08-17T07:14:09;15.80;;;9.03;;
71503;SDS011;59323;50.874;7.028;2023-08-17T07:16:34;15.47;;;8.23;;
71503;SDS011;59323;50.874;7.028;2023-08-17T07:19:00;14.73;;;8.37;;
71503;SDS011;59323;50.874;7.028;2023-08-17T07:21:25;14.25;;;8.13;;
71503;SDS011;59323;50.874;7.028;2023-08-17T07:23:54;15.27;;;7.20;;
71503;SDS011;59323;50.874;7.028;2023-08-17T07:26:20;14.80;;;7.55;;
71503;SDS011;59323;50.874;7.028;2023-08-17T07:28:47;14.95;;;6.18;;
71503;SDS011;59323;50.874;7.028;2023-08-17T07:31:13;13.63;;;7.73;;
71503;SDS011;59323;50.874;7.028;2023-08-17T07:33:39;10.50;;;5.35;;
71503;SDS011;59323;50.874;7.028;2023-08-17T07:36:04;11.87;;;6.87;;
71503;SDS011;59323;50.874;7.028;2023-08-17T07:38:30;11.75;;;7.10;;
71503;SDS011;59323;50.874;7.028;2023-08-17T07:40:56;12.53;;;6.73;;
71503;SDS011;59323;50.874;7.028;2023-08-17T07:43:22;9.90;;;6.03;;
71503;SDS011;59323;50.874;7.028;2023-08-17T07:45:57;12.25;;;6.75;;
71503;SDS011;59323;50.874;7.028;2023-08-17T07:48:23;17.25;;;7.75;;
71503;SDS011;59323;50.874;7.028;2023-08-17T07:50:51;14.90;;;7.67;;
71503;SDS011;59323;50.874;7.028;2023-08-17T07:53:17;14.70;;;7.10;;
71503;SDS011;59323;50.874;7.028;2023-08-17T07:55:43;18.87;;;9.43;;
71503;SDS011;59323;50.874;7.028;2023-08-17T07:58:08;14.93;;;7.82;;
71503;SDS011;59323;50.874;7.028;2023-08-17T08:00:34;16.17;;;8.93;;
71503;SDS011;59323;50.874;7.028;2023-08-17T08:02:59;15.47;;;7.50;;
71503;SDS011;59323;50.874;7.028;2023-08-17T08:05:25;14.13;;;8.20;;
71503;SDS011;59323;50.874;7.028;2023-08-17T08:07:53;14.80;;;8.52;;
71503;SDS011;59323;50.874;7.028;2023-08-17T08:10:19;14.23;;;7.70;;
71503;SDS011;59323;50.874;7.028;2023-08-17T08:12:44;15.50;;;7.78;;
71503;SDS011;59323;50.874;7.028;2023-08-17T08:15:10;21.70;;;10.20;;
71503;SDS011;59323;50.874;7.028;2023-08-17T08:17:38;20.90;;;8.73;;
71503;SDS011;59323;50.874;7.028;2023-08-17T08:20:06;14.02;;;8.07;;
71503;SDS011;59323;50.874;7.028;2023-08-17T08:22:33;17.13;;;9.18;;
71503;SDS011;59323;50.874;7.028;2023-08-17T08:24:58;18.93;;;9.67;;
71503;SDS011;59323;50.874;7.028;2023-08-17T08:27:23;22.90;;;10.40;;
71503;SDS011;59323;50.874;7.028;2023-08-17T08:29:50;23.50;;;11.17;;
71503;SDS011;59323;50.874;7.028;2023-08-17T08:32:15;22.02;;;10.32;;
71503;SDS011;59323;50.874;7.028;2023-08-17T08:34:40;16.97;;;9.13;;
71503;SDS011;59323;50.874;7.028;2023-08-17T08:37:06;21.77;;;10.07;;
71503;SDS011;59323;50.874;7.028;2023-08-17T08:39:31;21.40;;;10.95;;
71503;SDS011;59323;50.874;7.028;2023-08-17T08:41:57;21.80;;;10.10;;
71503;SDS011;59323;50.874;7.028;2023-08-17T08:44:26;24.40;;;11.00;;
71503;SDS011;59323;50.874;7.028;2023-08-17T08:46:52;26.35;;;12.48;;
71503;SDS011;59323;50.874;7.028;2023-08-17T08:49:21;23.13;;;11.03;;
71503;SDS011;59323;50.874;7.028;2023-08-17T08:51:49;27.13;;;11.50;;
71503;SDS011;59323;50.874;7.028;2023-08-17T08:54:18;24.70;;;11.20;;
71503;SDS011;59323;50.874;7.028;2023-08-17T08:56:47;24.13;;;10.93;;
71503;SDS011;59323;50.874;7.028;2023-08-17T08:59:19;21.48;;;12.10;;
71503;SDS011;59323;50.874;7.028;2023-08-17T09:01:45;25.90;;;12.30;;
71503;SDS011;59323;50.874;7.028;2023-08-17T09:04:12;23.75;;;11.63;;
71503;SDS011;59323;50.874;7.028;2023-08-17T09:06:38;21.70;;;10.50;;
71503;SDS011;59323;50.874;7.028;2023-08-17T09:09:05;26.33;;;12.15;;
71503;SDS011;59323;50.874;7.028;2023-08-17T09:11:31;23.47;;;12.07;;
71503;SDS011;59323;50.874;7.028;2023-08-17T09:13:56;24.85;;;12.68;;
71503;SDS011;59323;50.874;7.028;2023-08-17T09:16:22;23.60;;;11.00;;
71503;SDS011;59323;50.874;7.028;2023-08-17T09:18:47;24.87;;;11.53;;
71503;SDS011;59323;50.874;7.028;2023-08-17T09:24:16;22.70;;;11.55;;
71503;SDS011;59323;50.874;7.028;2023-08-17T09:26:45;20.05;;;10.55;;
71503;SDS011;59323;50.874;7.028;2023-08-17T09:29:19;18.30;;;9.33;;
71503;SDS011;59323;50.874;7.028;2023-08-17T09:31:46;21.40;;;9.80;;
71503;SDS011;59323;50.874;7.028;2023-08-17T09:34:15;22.55;;;10.20;;
71503;SDS011;59323;50.874;7.028;2023-08-17T09:36:41;17.05;;;8.60;;
71503;SDS011;59323;50.874;7.028;2023-08-17T09:39:09;14.40;;;8.43;;
71503;SDS011;59323;50.874;7.028;2023-08-17T09:41:40;22.45;;;10.23;;
71503;SDS011;59323;50.874;7.028;2023-08-17T09:44:36;18.30;;;9.65;;
71503;SDS011;59323;50.874;7.028;2023-08-17T09:47:35;20.95;;;10.07;;
71503;SDS011;59323;50.874;7.028;2023-08-17T09:50:01;23.10;;;10.20;;
71503;SDS011;59323;50.874;7.028;2023-08-17T09:52:30;23.00;;;10.82;;
71503;SDS011;59323;50.874;7.028;2023-08-17T09:55:07;17.10;;;8.13;;
71503;SDS011;59323;50.874;7.028;2023-08-17T09:57:45;21.48;;;9.57;;
71503;SDS011;59323;50.874;7.028;2023-08-17T10:00:12;19.70;;;10.05;;
71503;SDS011;59323;50.874;7.028;2023-08-17T10:02:41;17.13;;;8.60;;
71503;SDS011;59323;50.874;7.028;2023-08-17T10:05:11;17.05;;;8.70;;
71503;SDS011;59323;50.874;7.028;2023-08-17T10:07:41;19.88;;;9.25;;
71503;SDS011;59323;50.874;7.028;2023-08-17T10:10:09;16.92;;;7.68;;
71503;SDS011;59323;50.874;7.028;2023-08-17T10:12:44;20.10;;;10.93;;
71503;SDS011;59323;50.874;7.028;2023-08-17T10:15:15;19.50;;;8.47;;
71503;SDS011;59323;50.874;7.028;2023-08-17T10:17:47;21.75;;;9.43;;
71503;SDS011;59323;50.874;7.028;2023-08-17T10:20:21;18.23;;;8.52;;
71503;SDS011;59323;50.874;7.028;2023-08-17T10:25:53;15.30;;;7.70;;
71503;SDS011;59323;50.874;7.028;2023-08-17T10:28:22;15.40;;;6.70;;
71503;SDS011;59323;50.874;7.028;2023-08-17T10:30:52;12.38;;;6.13;;
71503;SDS011;59323;50.874;7.028;2023-08-17T10:33:17;15.57;;;7.03;;
71503;SDS011;59323;50.874;7.028;2023-08-17T10:35:46;12.48;;;5.60;;
71503;SDS011;59323;50.874;7.028;2023-08-17T10:38:13;16.33;;;7.83;;
71503;SDS011;59323;50.874;7.028;2023-08-17T10:40:41;13.52;;;7.00;;
71503;SDS011;59323;50.874;7.028;2023-08-17T10:45:46;13.07;;;7.18;;
71503;SDS011;59323;50.874;7.028;2023-08-17T10:48:24;16.27;;;7.28;;
71503;SDS011;59323;50.874;7.028;2023-08-17T10:51:01;12.00;;;7.10;;
71503;SDS011;59323;50.874;7.028;2023-08-17T10:53:35;14.82;;;7.28;;
71503;SDS011;59323;50.874;7.028;2023-08-17T10:56:06;14.00;;;7.28;;
71503;SDS011;59323;50.874;7.028;2023-08-17T10:58:42;12.48;;;6.15;;
71503;SDS011;59323;50.874;7.028;2023-08-17T11:01:11;15.98;;;7.88;;
71503;SDS011;59323;50.874;7.028;2023-08-17T11:06:49;12.95;;;8.13;;
71503;SDS011;59323;50.874;7.028;2023-08-17T11:09:29;12.82;;;6.90;;
71503;SDS011;59323;50.874;7.028;2023-08-17T11:11:57;15.33;;;8.00;;
71503;SDS011;59323;50.874;7.028;2023-08-17T11:14:25;13.15;;;7.40;;
71503;SDS011;59323;50.874;7.028;2023-08-17T11:16:50;13.80;;;8.18;;
71503;SDS011;59323;50.874;7.028;2023-08-17T11:19:24;12.27;;;6.90;;
71503;SDS011;59323;50.874;7.028;2023-08-17T11:21:52;10.77;;;6.22;;
71503;SDS011;59323;50.874;7.028;2023-08-17T11:24:20;11.27;;;6.72;;
71503;SDS011;59323;50.874;7.028;2023-08-17T11:27:13;11.47;;;7.57;;
71503;SDS011;59323;50.874;7.028;2023-08-17T11:29:39;11.07;;;6.93;;
71503;SDS011;59323;50.874;7.028;2023-08-17T11:32:05;13.07;;;6.60;;
71503;SDS011;59323;50.874;7.028;2023-08-17T11:34:30;15.33;;;7.03;;
71503;SDS011;59323;50.874;7.028;2023-08-17T11:36:59;12.60;;;6.90;;
71503;SDS011;59323;50.874;7.028;2023-08-17T11:39:24;12.57;;;7.40;;
71503;SDS011;59323;50.874;7.028;2023-08-17T11:41:50;12.97;;;7.00;;
71503;SDS011;59323;50.874;7.028;2023-08-17T11:44:18;12.18;;;6.57;;
71503;SDS011;59323;50.874;7.028;2023-08-17T11:46:46;12.18;;;6.90;;
71503;SDS011;59323;50.874;7.028;2023-08-17T11:49:12;12.63;;;6.40;;
71503;SDS011;59323;50.874;7.028;2023-08-17T11:51:38;12.80;;;7.77;;
71503;SDS011;59323;50.874;7.028;2023-08-17T11:54:04;13.57;;;7.07;;
71503;SDS011;59323;50.874;7.028;2023-08-17T11:56:32;10.70;;;6.78;;
71503;SDS011;59323;50.874;7.028;2023-08-17T11:58:58;12.50;;;7.50;;
71503;SDS011;59323;50.874;7.028;2023-08-17T12:01:24;16.63;;;7.27;;
71503;SDS011;59323;50.874;7.028;2023-08-17T12:03:49;10.60;;;7.03;;
71503;SDS011;59323;50.874;7.028;2023-08-17T12:06:15;14.57;;;6.97;;
71503;SDS011;59323;50.874;7.028;2023-08-17T12:08:45;12.27;;;6.17;;
71503;SDS011;59323;50.874;7.028;2023-08-17T12:11:11;11.68;;;6.15;;
71503;SDS011;59323;50.874;7.028;2023-08-17T12:13:36;10.50;;;6.33;;
71503;SDS011;59323;50.874;7.028;2023-08-17T12:16:02;12.60;;;6.45;;
71503;SDS011;59323;50.874;7.028;2023-08-17T12:18:28;13.35;;;6.30;;
71503;SDS011;59323;50.874;7.028;2023-08-17T12:20:54;14.00;;;6.93;;
71503;SDS011;59323;50.874;7.028;2023-08-17T12:23:20;13.85;;;6.88;;
71503;SDS011;59323;50.874;7.028;2023-08-17T12:25:45;10.40;;;5.70;;
71503;SDS011;59323;50.874;7.028;2023-08-17T12:28:14;8.87;;;5.20;;
71503;SDS011;59323;50.874;7.028;2023-08-17T12:30:40;10.32;;;6.22;;
71503;SDS011;59323;50.874;7.028;2023-08-17T12:33:05;12.60;;;6.47;;
71503;SDS011;59323;50.874;7.028;2023-08-17T12:35:31;12.20;;;7.13;;
71503;SDS011;59323;50.874;7.028;2023-08-17T12:37:57;10.70;;;6.60;;
71503;SDS011;59323;50.874;7.028;2023-08-17T12:40:23;15.10;;;8.63;;
71503;SDS011;59323;50.874;7.028;2023-08-17T12:42:48;12.03;;;7.53;;
71503;SDS011;59323;50.874;7.028;2023-08-17T12:45:20;15.10;;;8.65;;
71503;SDS011;59323;50.874;7.028;2023-08-17T12:47:48;14.45;;;8.15;;
71503;SDS011;59323;50.874;7.028;2023-08-17T12:50:13;14.00;;;8.40;;
71503;SDS011;59323;50.874;7.028;2023-08-17T12:52:39;15.70;;;7.77;;
71503;SDS011;59323;50.874;7.028;2023-08-17T12:55:05;14.35;;;7.82;;
71503;SDS011;59323;50.874;7.028;2023-08-17T12:57:30;14.73;;;8.07;;
71503;SDS011;59323;50.874;7.028;2023-08-17T12:59:56;15.13;;;9.17;;
71503;SDS011;59323;50.874;7.028;2023-08-17T13:02:21;14.13;;;8.30;;
71503;SDS011;59323;50.874;7.028;2023-08-17T13:04:47;12.70;;;8.23;;
71503;SDS011;59323;50.874;7.028;2023-08-17T13:07:12;14.60;;;8.17;;
71503;SDS011;59323;50.874;7.028;2023-08-17T13:09:38;15.48;;;8.80;;
71503;SDS011;59323;50.874;7.028;2023-08-17T13:12:03;15.90;;;9.10;;
71503;SDS011;59323;50.874;7.028;2023-08-17T13:14:29;13.47;;;8.53;;
71503;SDS011;59323;50.874;7.028;2023-08-17T13:16:54;13.17;;;8.27;;
71503;SDS011;59323;50.874;7.028;2023-08-17T13:19:19;18.92;;;8.55;;
71503;SDS011;59323;50.874;7.028;2023-08-17T13:21:45;16.63;;;9.13;;
71503;SDS011;59323;50.874;7.028;2023-08-17T13:24:10;13.83;;;8.13;;
71503;SDS011;59323;50.874;7.028;2023-08-17T13:26:36;14.35;;;8.77;;
71503;SDS011;59323;50.874;7.028;2023-08-17T13:29:02;16.97;;;8.53;;
71503;SDS011;59323;50.874;7.028;2023-08-17T13:31:27;14.20;;;8.65;;
71503;SDS011;59323;50.874;7.028;2023-08-17T13:33:54;14.20;;;8.13;;
71503;SDS011;59323;50.874;7.028;2023-08-17T13:36:19;16.20;;;8.60;;
71503;SDS011;59323;50.874;7.028;2023-08-17T13:38:50;16.27;;;8.70;;
71503;SDS011;59323;50.874;7.028;2023-08-17T13:41:16;13.85;;;8.82;;
71503;SDS011;59323;50.874;7.028;2023-08-17T13:43:47;13.80;;;9.17;;
71503;SDS011;59323;50.874;7.028;2023-08-17T13:46:12;14.05;;;8.38;;
71503;SDS011;59323;50.874;7.028;2023-08-17T13:48:38;13.43;;;8.23;;
71503;SDS011;59323;50.874;7.028;2023-08-17T13:51:04;18.13;;;8.30;;
71503;SDS011;59323;50.874;7.028;2023-08-17T13:53:32;15.27;;;8.40;;
71503;SDS011;59323;50.874;7.028;2023-08-17T13:55:58;15.82;;;8.20;;
71503;SDS011;59323;50.874;7.028;2023-08-17T13:58:26;15.10;;;8.07;;
71503;SDS011;59323;50.874;7.028;2023-08-17T14:01:07;15.20;;;8.20;;
71503;SDS011;59323;50.874;7.028;2023-08-17T14:03:32;14.38;;;7.80;;
71503;SDS011;59323;50.874;7.028;2023-08-17T14:05:58;10.23;;;6.70;;
71503;SDS011;59323;50.874;7.028;2023-08-17T14:08:23;11.53;;;7.00;;
71503;SDS011;59323;50.874;7.028;2023-08-17T14:11:24;11.45;;;6.85;;
71503;SDS011;59323;50.874;7.028;2023-08-17T14:13:49;12.77;;;7.03;;
71503;SDS011;59323;50.874;7.028;2023-08-17T14:16:21;9.85;;;6.45;;
71503;SDS011;59323;50.874;7.028;2023-08-17T14:18:56;12.13;;;7.37;;
71503;SDS011;59323;50.874;7.028;2023-08-17T14:21:24;12.90;;;7.57;;
71503;SDS011;59323;50.874;7.028;2023-08-17T14:24:48;14.17;;;8.10;;
71503;SDS011;59323;50.874;7.028;2023-08-17T14:27:16;11.75;;;6.82;;
71503;SDS011;59323;50.874;7.028;2023-08-17T14:29:42;13.10;;;7.07;;
71503;SDS011;59323;50.874;7.028;2023-08-17T14:32:39;16.15;;;8.27;;
71503;SDS011;59323;50.874;7.028;2023-08-17T14:37:57;13.25;;;7.43;;
71503;SDS011;59323;50.874;7.028;2023-08-17T14:40:44;12.88;;;7.93;;
71503;SDS011;59323;50.874;7.028;2023-08-17T14:43:21;14.43;;;7.57;;
71503;SDS011;59323;50.874;7.028;2023-08-17T14:45:47;12.07;;;7.05;;
71503;SDS011;59323;50.874;7.028;2023-08-17T14:48:12;12.73;;;6.67;;
71503;SDS011;59323;50.874;7.028;2023-08-17T14:50:37;10.80;;;6.50;;
71503;SDS011;59323;50.874;7.028;2023-08-17T14:53:06;11.27;;;7.00;;
71503;SDS011;59323;50.874;7.028;2023-08-17T14:55:47;12.40;;;6.75;;